createdAt,value
2022-11-25T00:02:47.419Z,23.38
2022-11-25T00:05:49.648Z,22.13
2022-11-25T00:08:54.386Z,23.50
2022-11-25T00:11:56.349Z,23.15
2022-11-25T00:14:58.353Z,20.42
2022-11-25T00:18:00.353Z,21.13
2022-11-25T00:21:09.052Z,22.42
2022-11-25T00:24:13.463Z,18.70
2022-11-25T00:27:15.500Z,23.00
2022-11-25T00:30:17.559Z,22.88
2022-11-25T00:33:19.601Z,19.67
2022-11-25T00:36:23.235Z,19.98
2022-11-25T00:39:27.160Z,19.25
2022-11-25T00:42:47.816Z,20.02
2022-11-25T00:45:49.866Z,19.77
2022-11-25T00:48:51.965Z,21.00
2022-11-25T00:51:54.092Z,21.25
2022-11-25T00:54:56.222Z,23.33
2022-11-25T00:57:58.240Z,21.63
2022-11-25T01:01:03.934Z,21.13
2022-11-25T01:04:06.176Z,22.70
2022-11-25T01:07:08.340Z,21.67
2022-11-25T01:10:10.532Z,21.58
2022-11-25T01:13:13.624Z,22.95
2022-11-25T01:16:17.082Z,23.30
2022-11-25T01:19:21.934Z,21.63
2022-11-25T01:22:24.022Z,21.10
2022-11-25T01:25:26.078Z,20.38
2022-11-25T01:28:28.053Z,21.30
2022-11-25T01:31:31.538Z,21.70
2022-11-25T01:34:34.767Z,23.13
2022-11-25T01:37:37.028Z,21.77
2022-11-25T01:40:39.013Z,21.73
2022-11-25T01:43:41.717Z,22.35
2022-11-25T01:46:47.102Z,22.42
2022-11-25T01:49:58.257Z,22.37
2022-11-25T01:53:01.321Z,23.27
2022-11-25T01:56:04.012Z,22.40
2022-11-25T01:59:08.763Z,21.47
2022-11-25T02:02:11.282Z,22.98
2022-11-25T02:05:15.299Z,25.30
2022-11-25T02:08:17.885Z,24.80
2022-11-25T02:11:21.080Z,22.08
2022-11-25T02:14:23.688Z,25.65
2022-11-25T02:17:27.182Z,23.20
2022-11-25T02:20:29.312Z,23.13
2022-11-25T02:23:47.507Z,26.73
2022-11-25T02:26:49.548Z,26.00
2022-11-25T02:29:52.221Z,24.57
2022-11-25T02:32:54.950Z,24.55
2022-11-25T02:35:58.564Z,24.42
2022-11-25T02:39:01.759Z,27.52
2022-11-25T02:42:07.324Z,23.80
2022-11-25T02:45:12.228Z,27.95
2022-11-25T02:48:14.361Z,24.58
2022-11-25T02:51:17.614Z,29.73
2022-11-25T02:54:19.627Z,29.25
2022-11-25T02:57:21.629Z,28.90
2022-11-25T03:00:23.677Z,25.87
2022-11-25T03:03:25.829Z,26.13
2022-11-25T03:06:28.749Z,25.35
2022-11-25T03:09:30.890Z,24.50
2022-11-25T03:12:32.977Z,24.33
2022-11-25T03:15:35.781Z,26.13
2022-11-25T03:18:38.029Z,22.60
2022-11-25T03:21:40.021Z,24.83
2022-11-25T03:24:42.580Z,22.45
2022-11-25T03:27:44.787Z,20.45
2022-11-25T03:30:47.004Z,23.03
2022-11-25T03:33:49.075Z,19.00
2022-11-25T03:36:51.197Z,22.08
2022-11-25T03:39:53.472Z,20.88
2022-11-25T03:42:55.665Z,21.52
2022-11-25T03:45:58.548Z,22.63
2022-11-25T03:49:00.847Z,23.70
2022-11-25T03:52:04.222Z,23.70
2022-11-25T03:55:06.941Z,22.20
2022-11-25T03:58:10.986Z,21.50
2022-11-25T04:01:13.071Z,21.87
2022-11-25T04:04:15.142Z,21.52
2022-11-25T04:07:18.375Z,23.80
2022-11-25T04:10:20.421Z,23.77
2022-11-25T04:13:22.645Z,21.77
2022-11-25T04:16:26.901Z,25.38
2022-11-25T04:19:29.983Z,25.77
2022-11-25T04:22:33.147Z,26.47
2022-11-25T04:25:37.592Z,30.50
2022-11-25T04:28:47.016Z,29.15
2022-11-25T04:31:49.076Z,28.40
2022-11-25T04:34:51.268Z,26.98
2022-11-25T04:37:54.149Z,25.33
2022-11-25T04:40:57.481Z,28.13
2022-11-25T04:44:00.304Z,25.35
2022-11-25T04:47:03.454Z,28.20
2022-11-25T04:50:06.508Z,29.02
2022-11-25T04:53:13.913Z,29.47
2022-11-25T04:56:17.644Z,30.80
2022-11-25T04:59:39.729Z,25.73
2022-11-25T05:02:42.247Z,25.33
2022-11-25T05:05:53.412Z,25.00
2022-11-25T05:08:55.938Z,27.15
2022-11-25T05:12:00.341Z,27.65
2022-11-25T05:15:02.502Z,27.48
2022-11-25T05:18:04.709Z,28.30
2022-11-25T05:21:18.477Z,29.98
2022-11-25T05:24:20.927Z,27.27
2022-11-25T05:27:26.613Z,28.45
2022-11-25T05:30:29.812Z,28.08
2022-11-25T05:33:32.085Z,26.93
2022-11-25T05:36:34.896Z,25.15
2022-11-25T05:39:38.470Z,26.17
2022-11-25T05:43:03.772Z,25.00
2022-11-25T05:46:10.379Z,24.30
2022-11-25T05:49:19.396Z,25.55
2022-11-25T05:52:22.681Z,24.17
2022-11-25T05:55:30.155Z,24.00
2022-11-25T05:58:33.604Z,25.90
2022-11-25T06:01:36.439Z,24.25
2022-11-25T06:04:38.849Z,26.57
2022-11-25T06:07:41.116Z,23.88
2022-11-25T06:10:43.702Z,23.65
2022-11-25T06:13:46.217Z,24.08
2022-11-25T06:16:48.285Z,24.80
2022-11-25T06:20:06.393Z,26.38
2022-11-25T06:23:09.165Z,28.65
2022-11-25T06:26:13.587Z,29.43
2022-11-25T06:29:15.709Z,28.17
2022-11-25T06:32:22.600Z,26.95
2022-11-25T06:35:37.766Z,27.13
2022-11-25T06:38:40.369Z,23.17
2022-11-25T06:41:42.529Z,23.58
2022-11-25T06:44:44.796Z,22.08
2022-11-25T06:47:47.132Z,25.90
2022-11-25T06:51:02.209Z,22.10
2022-11-25T06:54:04.596Z,21.60
2022-11-25T06:57:09.929Z,25.17
2022-11-25T07:00:12.190Z,24.00
2022-11-25T07:03:14.329Z,20.73
2022-11-25T07:06:17.020Z,26.20
2022-11-25T07:09:19.866Z,20.40
2022-11-25T07:12:22.012Z,18.15
2022-11-25T07:15:24.455Z,17.85
2022-11-25T07:18:26.558Z,17.08
2022-11-25T07:21:29.953Z,18.23
2022-11-25T07:24:32.086Z,19.02
2022-11-25T07:27:34.263Z,16.57
2022-11-25T07:33:59.594Z,28.45
2022-11-25T07:37:01.607Z,24.77
2022-11-25T07:40:03.916Z,22.83
2022-11-25T07:43:06.202Z,19.63
2022-11-25T07:46:16.531Z,23.27
2022-11-25T07:49:20.813Z,20.17
2022-11-25T07:52:23.318Z,21.42
2022-11-25T07:55:25.333Z,20.00
2022-11-25T07:58:27.505Z,26.03
2022-11-25T08:01:29.926Z,31.67
2022-11-25T08:04:32.762Z,22.35
2022-11-25T08:07:36.687Z,24.57
2022-11-25T08:10:42.094Z,22.02
2022-11-25T08:13:44.734Z,22.13
2022-11-25T08:16:47.440Z,23.75
2022-11-25T08:19:49.603Z,33.22
2022-11-25T08:22:51.709Z,34.60
2022-11-25T08:25:54.165Z,29.77
2022-11-25T08:28:56.796Z,26.63
2022-11-25T08:31:58.981Z,28.27
2022-11-25T08:35:01.166Z,29.50
2022-11-25T08:38:09.396Z,37.33
2022-11-25T08:41:15.330Z,33.03
2022-11-25T08:44:17.573Z,30.45
2022-11-25T08:47:19.822Z,30.67
2022-11-25T08:50:22.282Z,30.23
2022-11-25T08:53:24.542Z,33.83
2022-11-25T08:56:27.101Z,33.20
2022-11-25T08:59:29.196Z,30.70
2022-11-25T09:02:31.344Z,30.90
2022-11-25T09:05:36.282Z,26.48
2022-11-25T09:08:39.738Z,23.20
2022-11-25T09:11:42.482Z,19.88
2022-11-25T09:14:44.937Z,20.02
2022-11-25T09:17:47.218Z,19.10
2022-11-25T09:20:49.666Z,17.88
2022-11-25T09:23:52.512Z,18.33
2022-11-25T09:26:54.900Z,16.88
2022-11-25T09:29:56.995Z,17.73
2022-11-25T09:32:59.114Z,17.30
2022-11-25T09:36:01.810Z,15.07
2022-11-25T09:39:04.261Z,15.23
2022-11-25T09:42:33.076Z,15.98
2022-11-25T09:45:57.036Z,18.05
2022-11-25T09:49:17.589Z,19.30
2022-11-25T09:52:23.914Z,16.50
2022-11-25T09:55:26.525Z,18.67
2022-11-25T09:58:28.667Z,17.88
2022-11-25T10:01:31.510Z,15.13
2022-11-25T10:04:36.842Z,17.13
2022-11-25T10:07:43.016Z,17.10
2022-11-25T10:10:47.861Z,16.63
2022-11-25T10:14:03.526Z,17.45
2022-11-25T10:17:14.913Z,17.33
2022-11-25T10:20:17.334Z,18.40
2022-11-25T10:23:28.006Z,20.17
2022-11-25T10:26:35.894Z,20.52
2022-11-25T10:29:38.238Z,20.35
2022-11-25T10:32:42.165Z,18.87
2022-11-25T10:35:58.165Z,24.42
2022-11-25T10:39:00.155Z,24.20
2022-11-25T10:42:08.390Z,23.67
2022-11-25T10:45:11.106Z,21.48
2022-11-25T10:48:32.696Z,22.48
2022-11-25T10:51:46.636Z,23.63
2022-11-25T10:54:59.903Z,20.45
2022-11-25T10:58:27.099Z,21.67
2022-11-25T11:01:29.371Z,19.85
2022-11-25T11:04:33.050Z,20.47
2022-11-25T11:07:42.252Z,21.35
2022-11-25T11:10:45.073Z,18.35
2022-11-25T11:13:47.514Z,21.23
2022-11-25T11:16:53.949Z,20.23
2022-11-25T11:20:02.128Z,18.35
2022-11-25T11:23:09.432Z,20.73
2022-11-25T11:26:21.471Z,21.17
2022-11-25T11:29:23.976Z,22.13
2022-11-25T11:32:28.656Z,21.50
2022-11-25T11:35:42.008Z,16.47
2022-11-25T11:39:04.645Z,17.65
2022-11-25T11:42:06.746Z,19.50
2022-11-25T11:45:08.822Z,17.77
2022-11-25T11:48:17.038Z,19.23
2022-11-25T11:51:42.382Z,20.42
2022-11-25T11:54:52.579Z,19.63
2022-11-25T11:58:09.660Z,20.33
2022-11-25T12:01:30.182Z,16.30
2022-11-25T12:04:35.417Z,18.83
2022-11-25T12:07:40.487Z,19.33
2022-11-25T12:10:45.569Z,22.70
2022-11-25T12:14:00.971Z,18.95
2022-11-25T12:17:07.718Z,19.97
2022-11-25T12:20:24.983Z,20.33
2022-11-25T12:23:29.928Z,19.23
2022-11-25T12:26:41.155Z,21.02
2022-11-25T12:29:50.396Z,22.73
2022-11-25T12:33:04.890Z,22.63
2022-11-25T12:36:18.733Z,22.25
2022-11-25T12:39:23.480Z,21.95
2022-11-25T12:42:26.371Z,19.58
2022-11-25T12:45:28.660Z,20.63
2022-11-25T12:48:31.145Z,21.07
2022-11-25T12:51:45.302Z,21.17
2022-11-25T12:54:53.292Z,20.52
2022-11-25T12:58:10.492Z,20.73
2022-11-25T13:01:12.703Z,20.90
2022-11-25T13:04:35.885Z,21.57
2022-11-25T13:08:10.329Z,20.08
2022-11-25T13:11:12.964Z,19.63
2022-11-25T13:14:15.560Z,18.70
2022-11-25T13:17:18.578Z,20.40
2022-11-25T13:20:23.762Z,19.53
2022-11-25T13:23:26.844Z,17.67
2022-11-25T13:26:28.856Z,17.17
2022-11-25T13:29:30.922Z,18.58
2022-11-25T13:32:34.245Z,19.97
2022-11-25T13:35:37.058Z,23.37
2022-11-25T13:38:58.952Z,18.08
2022-11-25T13:42:02.595Z,27.65
2022-11-25T13:45:04.842Z,20.80
2022-11-25T13:48:12.954Z,18.23
2022-11-25T13:51:22.721Z,20.73
2022-11-25T13:54:27.297Z,21.45
2022-11-25T13:57:34.778Z,21.70
2022-11-25T14:00:36.811Z,20.90
2022-11-25T14:03:46.042Z,21.08
2022-11-25T14:07:15.618Z,42.15
2022-11-25T14:10:39.163Z,26.75
2022-11-25T14:13:41.204Z,26.37
2022-11-25T14:16:46.003Z,36.85
2022-11-25T14:19:52.241Z,25.58
2022-11-25T14:23:14.585Z,24.92
2022-11-25T14:26:48.609Z,25.17
2022-11-25T14:29:54.801Z,26.90
2022-11-25T14:33:02.193Z,29.80
2022-11-25T14:36:13.495Z,27.77
2022-11-25T14:39:21.161Z,25.83
2022-11-25T14:42:25.669Z,24.45
2022-11-25T14:45:33.580Z,27.70
2022-11-25T14:48:35.646Z,34.17
2022-11-25T14:51:38.563Z,35.13
2022-11-25T14:54:41.852Z,36.53
2022-11-25T14:57:44.979Z,40.72
2022-11-25T15:01:05.763Z,41.00
2022-11-25T15:04:19.166Z,48.45
2022-11-25T15:07:27.888Z,56.23
2022-11-25T15:10:32.962Z,64.82
2022-11-25T15:13:35.127Z,55.50
2022-11-25T15:16:38.993Z,55.93
2022-11-25T15:19:41.166Z,59.03
2022-11-25T15:22:46.671Z,59.17
2022-11-25T15:25:49.707Z,45.53
2022-11-25T15:28:56.895Z,43.25
2022-11-25T15:32:00.132Z,50.35
2022-11-25T15:35:02.559Z,47.42
2022-11-25T15:38:20.468Z,47.17
2022-11-25T15:41:35.915Z,46.83
2022-11-25T15:44:44.585Z,50.13
2022-11-25T15:47:46.782Z,48.47
2022-11-25T15:50:48.793Z,46.17
2022-11-25T15:53:56.224Z,40.03
2022-11-25T15:57:05.949Z,50.85
2022-11-25T16:00:18.437Z,75.30
2022-11-25T16:03:21.136Z,58.75
2022-11-25T16:06:23.161Z,42.05
2022-11-25T16:09:27.563Z,39.80
2022-11-25T16:12:29.607Z,38.83
2022-11-25T16:15:45.623Z,35.38
2022-11-25T16:18:47.601Z,37.57
2022-11-25T16:21:54.670Z,36.28
2022-11-25T16:25:02.033Z,38.47
2022-11-25T16:28:04.608Z,38.83
2022-11-25T16:31:06.649Z,38.28
2022-11-25T16:34:16.057Z,40.67
2022-11-25T16:37:18.415Z,38.45
2022-11-25T16:40:20.600Z,58.57
2022-11-25T16:43:24.295Z,54.75
2022-11-25T16:46:26.400Z,60.80
2022-11-25T16:49:29.919Z,71.70
2022-11-25T16:52:31.930Z,58.30
2022-11-25T16:55:34.308Z,63.42
2022-11-25T16:58:36.351Z,55.75
2022-11-25T17:01:38.451Z,45.90
2022-11-25T17:04:40.538Z,52.92
2022-11-25T17:07:42.562Z,54.42
2022-11-25T17:10:45.011Z,51.80
2022-11-25T17:13:50.885Z,62.33
2022-11-25T17:16:53.062Z,53.05
2022-11-25T17:19:55.153Z,52.23
2022-11-25T17:22:58.288Z,51.70
2022-11-25T17:26:00.356Z,47.42
2022-11-25T17:29:04.250Z,43.38
2022-11-25T17:32:06.807Z,44.30
2022-11-25T17:35:19.101Z,45.65
2022-11-25T17:38:25.466Z,46.92
2022-11-25T17:41:29.352Z,44.80
2022-11-25T17:44:31.722Z,44.50
2022-11-25T17:47:33.745Z,39.55
2022-11-25T17:50:36.300Z,32.30
2022-11-25T17:53:39.701Z,34.38
2022-11-25T17:56:43.909Z,36.63
2022-11-25T17:59:47.572Z,31.83
2022-11-25T18:02:49.766Z,29.55
2022-11-25T18:05:51.886Z,27.05
2022-11-25T18:08:53.952Z,28.70
2022-11-25T18:12:00.266Z,28.07
2022-11-25T18:15:08.406Z,27.33
2022-11-25T18:18:21.542Z,28.45
2022-11-25T18:21:26.332Z,31.13
2022-11-25T18:24:28.417Z,32.35
2022-11-25T18:27:32.199Z,33.55
2022-11-25T18:30:35.245Z,28.52
2022-11-25T18:33:37.302Z,30.75
2022-11-25T18:36:39.287Z,22.13
2022-11-25T18:39:41.334Z,26.83
2022-11-25T18:42:45.008Z,24.97
2022-11-25T18:45:47.152Z,28.60
2022-11-25T18:48:49.236Z,27.48
2022-11-25T18:51:51.308Z,29.00
2022-11-25T18:54:53.405Z,22.85
2022-11-25T18:57:55.434Z,28.95
2022-11-25T19:01:02.090Z,30.13
2022-11-25T19:04:04.507Z,29.92
2022-11-25T19:07:06.568Z,25.05
2022-11-25T19:10:13.589Z,30.48
2022-11-25T19:13:17.715Z,30.90
2022-11-25T19:16:20.947Z,32.63
2022-11-25T19:19:22.985Z,27.42
2022-11-25T19:22:25.245Z,27.07
2022-11-25T19:25:27.331Z,30.08
2022-11-25T19:28:30.380Z,24.33
2022-11-25T19:31:33.074Z,32.35
2022-11-25T19:34:37.515Z,28.23
2022-11-25T19:37:39.711Z,31.67
2022-11-25T19:40:41.737Z,31.48
2022-11-25T19:43:43.825Z,30.27
2022-11-25T19:47:14.448Z,36.92
2022-11-25T19:50:19.655Z,35.17
2022-11-25T19:53:22.024Z,39.13
2022-11-25T19:56:24.333Z,25.48
2022-11-25T19:59:26.330Z,39.25
2022-11-25T20:02:29.141Z,39.63
2022-11-25T20:05:31.139Z,35.85
2022-11-25T20:08:33.176Z,38.55
2022-11-25T20:11:36.703Z,38.10
2022-11-25T20:14:38.938Z,38.67
2022-11-25T20:17:43.442Z,36.55
2022-11-25T20:20:47.515Z,35.92
2022-11-25T20:23:50.242Z,34.57
2022-11-25T20:26:53.518Z,34.08
2022-11-25T20:29:55.782Z,38.70
2022-11-25T20:32:57.828Z,37.67
2022-11-25T20:36:03.292Z,37.05
2022-11-25T20:39:05.468Z,38.03
2022-11-25T20:42:09.381Z,37.80
2022-11-25T20:45:16.298Z,38.60
2022-11-25T20:48:18.367Z,36.92
2022-11-25T20:51:21.349Z,35.88
2022-11-25T20:54:24.656Z,53.73
2022-11-25T20:57:26.748Z,47.85
2022-11-25T21:00:28.822Z,49.03
2022-11-25T21:03:30.817Z,45.67
2022-11-25T21:06:39.277Z,50.13
2022-11-25T21:09:43.052Z,48.08
2022-11-25T21:12:45.063Z,42.78
2022-11-25T21:15:49.283Z,43.47
2022-11-25T21:18:51.343Z,35.53
2022-11-25T21:21:53.797Z,37.35
2022-11-25T21:24:55.939Z,40.37
2022-11-25T21:27:57.941Z,39.58
2022-11-25T21:30:59.958Z,35.42
2022-11-25T21:34:02.128Z,37.30
2022-11-25T21:37:04.144Z,46.75
2022-11-25T21:40:07.193Z,46.72
2022-11-25T21:43:19.872Z,40.42
2022-11-25T21:46:26.690Z,34.87
2022-11-25T21:49:28.914Z,39.17
2022-11-25T21:52:30.893Z,39.95
2022-11-25T21:55:33.704Z,44.67
2022-11-25T21:58:36.461Z,44.00
2022-11-25T22:01:38.462Z,43.22
2022-11-25T22:04:40.702Z,44.17
2022-11-25T22:07:42.885Z,38.42
2022-11-25T22:10:47.058Z,40.72
2022-11-25T22:13:49.377Z,41.33
2022-11-25T22:16:51.863Z,41.63
2022-11-25T22:19:54.084Z,47.47
2022-11-25T22:22:56.664Z,39.92
2022-11-25T22:25:58.762Z,43.27
2022-11-25T22:29:01.473Z,42.22
2022-11-25T22:32:08.184Z,46.90
2022-11-25T22:35:15.932Z,44.95
2022-11-25T22:38:18.383Z,43.97
2022-11-25T22:41:20.389Z,44.15
2022-11-25T22:44:29.502Z,42.53
2022-11-25T22:47:34.281Z,44.63
2022-11-25T22:50:36.292Z,45.17
2022-11-25T22:53:38.371Z,48.33
2022-11-25T22:56:40.400Z,43.93
2022-11-25T22:59:42.456Z,45.60
2022-11-25T23:02:44.585Z,44.28
2022-11-25T23:05:47.323Z,45.22
2022-11-25T23:08:49.298Z,39.67
2022-11-25T23:11:51.293Z,38.25
2022-11-25T23:14:53.254Z,35.22
2022-11-25T23:17:56.577Z,35.40
2022-11-25T23:20:58.636Z,30.70
2022-11-25T23:24:00.713Z,35.92
2022-11-25T23:27:02.996Z,35.37
2022-11-25T23:30:05.776Z,34.00
2022-11-25T23:33:11.102Z,33.60
2022-11-25T23:36:15.379Z,34.50
2022-11-25T23:39:21.633Z,31.15
2022-11-25T23:42:23.708Z,36.20
2022-11-25T23:45:26.820Z,35.55
2022-11-25T23:48:30.099Z,31.63
2022-11-25T23:51:32.259Z,29.40
2022-11-25T23:54:42.594Z,31.58
2022-11-25T23:57:47.485Z,34.17
